Time;durP1;ratioP1;P1;durP2;ratioP2;P2;SDS_P1;SDS_P2;PMS_P1;PMS_P2;Temp;Humidity;BMP_temperature;BMP_pressure;BME280_temperature;BME280_humidity;BME280_pressure;Samples;Min_cycle;Max_cycle;Signal;HPM_P1;HPM_P2
2024/02/06 00:01:12;;;;;;;5.70;1.20;;;20.90;42.90;;;;;;5072380;28;20024;-52
2024/02/06 00:03:38;;;;;;;1.25;0.82;;;20.90;42.90;;;;;;5089117;28;20111;-49
2024/02/06 00:06:04;;;;;;;2.25;1.00;;;20.90;42.90;;;;;;5077100;28;20032;-54
2024/02/06 00:08:29;;;;;;;1.45;0.77;;;20.90;42.90;;;;;;5096290;28;20332;-55
2024/02/06 00:10:55;;;;;;;1.67;0.70;;;20.90;42.90;;;;;;5078164;28;20039;-52
2024/02/06 00:13:21;;;;;;;1.98;0.73;;;20.90;42.90;;;;;;5095837;28;20031;-54
2024/02/06 00:15:47;;;;;;;1.90;0.98;;;20.80;43.50;;;;;;5074845;28;20440;-48
2024/02/06 00:18:13;;;;;;;2.03;0.80;;;20.90;42.90;;;;;;5095771;28;20039;-52
2024/02/06 00:20:38;;;;;;;1.15;0.70;;;20.80;42.90;;;;;;5095675;28;20035;-50
2024/02/06 00:23:04;;;;;;;1.88;0.80;;;20.90;42.90;;;;;;5096111;28;20093;-50
2024/02/06 00:25:30;;;;;;;1.17;0.90;;;20.90;42.90;;;;;;5095095;28;20103;-53
2024/02/06 00:27:56;;;;;;;1.25;0.70;;;20.90;43.00;;;;;;5093407;28;20032;-56
2024/02/06 00:30:22;;;;;;;2.15;0.90;;;20.90;42.90;;;;;;5077999;28;20055;-58
2024/02/06 00:32:48;;;;;;;2.35;1.00;;;20.80;42.90;;;;;;5075003;28;20036;-52
2024/02/06 00:35:14;;;;;;;0.98;0.60;;;20.90;43.00;;;;;;5091962;28;20024;-56
2024/02/06 00:37:40;;;;;;;4.40;0.95;;;20.80;42.90;;;;;;5094931;28;20028;-55
2024/02/06 00:40:08;;;;;;;2.33;1.08;;;20.80;42.90;;;;;;5095217;28;20070;-55
2024/02/06 00:42:34;;;;;;;1.52;0.85;;;20.80;43.00;;;;;;5090840;28;20074;-54
2024/02/06 00:44:59;;;;;;;1.35;0.80;;;20.80;42.90;;;;;;5091299;28;20044;-51
2024/02/06 00:47:25;;;;;;;1.42;0.70;;;20.80;43.60;;;;;;5074391;28;20082;-51
2024/02/06 00:49:51;;;;;;;1.90;0.75;;;20.80;43.00;;;;;;5074695;28;20043;-56
2024/02/06 00:52:17;;;;;;;2.13;0.90;;;20.80;43.00;;;;;;5074529;28;20108;-50
2024/02/06 00:54:43;;;;;;;2.00;1.00;;;20.80;43.00;;;;;;5074443;28;20024;-53
2024/02/06 00:57:08;;;;;;;1.95;1.08;;;20.80;43.00;;;;;;5074509;28;20024;-52
2024/02/06 00:59:34;;;;;;;2.67;1.30;;;20.70;43.00;;;;;;5074001;28;20033;-55
2024/02/06 01:02:00;;;;;;;2.80;1.00;;;20.80;43.00;;;;;;5074067;28;20115;-54
2024/02/06 01:04:26;;;;;;;2.42;1.13;;;20.80;43.00;;;;;;5074266;28;20102;-52
2024/02/06 01:06:52;;;;;;;2.35;1.13;;;20.70;43.00;;;;;;5074950;28;20040;-54
2024/02/06 01:09:21;;;;;;;1.40;0.93;;;20.70;43.00;;;;;;5073126;28;20028;-51
2024/02/06 01:11:47;;;;;;;1.88;0.88;;;20.70;43.00;;;;;;5071177;28;20051;-49
2024/02/06 01:14:13;;;;;;;1.58;0.82;;;20.70;43.00;;;;;;5074501;28;20016;-50
2024/02/06 01:16:39;;;;;;;1.42;0.75;;;20.70;43.00;;;;;;5073803;28;20436;-54
2024/02/06 01:19:05;;;;;;;2.08;1.20;;;20.70;43.00;;;;;;5056304;28;20063;-55
2024/02/06 01:21:31;;;;;;;2.05;0.82;;;20.70;43.10;;;;;;5073753;28;20356;-51
2024/02/06 01:23:56;;;;;;;1.45;1.05;;;20.70;43.10;;;;;;5056210;28;20070;-51
2024/02/06 01:26:22;;;;;;;1.55;0.90;;;20.70;43.10;;;;;;5056912;28;20029;-56
2024/02/06 01:28:49;;;;;;;2.95;0.85;;;20.70;43.10;;;;;;5073459;28;20386;-54
2024/02/06 01:31:14;;;;;;;3.38;1.05;;;20.70;43.10;;;;;;5073946;28;20041;-56
2024/02/06 01:33:40;;;;;;;2.15;1.00;;;20.70;43.10;;;;;;5074172;28;20130;-55
2024/02/06 01:36:07;;;;;;;1.55;1.10;;;20.60;43.00;;;;;;5074059;28;20355;-50
2024/02/06 01:38:33;;;;;;;1.42;1.00;;;20.60;43.00;;;;;;5073555;28;20471;-51
2024/02/06 01:40:59;;;;;;;2.15;0.90;;;20.60;43.10;;;;;;5056301;28;20048;-53
2024/02/06 01:43:25;;;;;;;2.03;1.00;;;20.60;43.70;;;;;;5055580;28;20035;-54
2024/02/06 01:45:54;;;;;;;2.03;1.20;;;20.60;43.10;;;;;;5069472;28;20042;-51
2024/02/06 01:48:21;;;;;;;1.73;0.80;;;20.60;43.10;;;;;;5114877;28;20020;-53
2024/02/06 01:50:48;;;;;;;2.30;0.90;;;20.60;43.10;;;;;;5096657;28;20047;-52
2024/02/06 01:53:14;;;;;;;4.03;1.02;;;20.60;43.10;;;;;;5129008;27;20024;-53
2024/02/06 01:55:41;;;;;;;1.80;0.93;;;20.60;43.10;;;;;;5095864;28;20038;-52
2024/02/06 01:58:07;;;;;;;1.80;0.70;;;20.60;43.10;;;;;;5114733;28;20047;-54
2024/02/06 02:00:35;;;;;;;1.42;0.90;;;20.60;43.10;;;;;;5114252;28;20485;-52
2024/02/06 02:03:02;;;;;;;1.92;0.90;;;20.60;43.10;;;;;;5114521;28;20475;-52
2024/02/06 02:05:29;;;;;;;2.58;1.20;;;20.60;43.80;;;;;;5113971;28;20106;-53
2024/02/06 02:07:55;;;;;;;1.67;1.05;;;20.60;43.10;;;;;;5114492;28;20031;-57
2024/02/06 02:10:21;;;;;;;2.60;1.10;;;20.60;43.10;;;;;;5114004;28;20530;-53
2024/02/06 02:12:47;;;;;;;2.42;1.13;;;20.60;43.20;;;;;;5096612;28;20016;-53
2024/02/06 02:15:15;;;;;;;2.97;0.90;;;20.60;43.20;;;;;;5113884;28;20023;-52
2024/02/06 02:17:41;;;;;;;2.13;0.90;;;20.60;43.20;;;;;;5114084;28;20049;-56
2024/02/06 02:20:07;;;;;;;2.30;1.00;;;20.50;43.10;;;;;;5095888;28;20028;-54
2024/02/06 02:22:33;;;;;;;2.45;0.82;;;20.60;43.20;;;;;;5096841;28;20042;-53
2024/02/06 02:24:59;;;;;;;2.63;1.00;;;20.50;43.10;;;;;;5113568;28;20027;-58
2024/02/06 02:27:25;;;;;;;1.67;0.80;;;20.50;43.10;;;;;;5112385;28;20115;-55
2024/02/06 02:29:53;;;;;;;2.00;1.10;;;20.50;43.10;;;;;;5095751;28;20098;-54
2024/02/06 02:32:20;;;;;;;3.00;1.00;;;20.60;43.20;;;;;;5113102;28;20110;-56
2024/02/06 02:34:47;;;;;;;1.25;0.85;;;20.50;43.10;;;;;;5078537;28;20028;-52
2024/02/06 02:37:13;;;;;;;1.83;1.00;;;20.50;43.10;;;;;;5113017;28;20447;-54
2024/02/06 02:39:39;;;;;;;2.25;0.80;;;20.50;43.20;;;;;;5113963;28;20031;-55
2024/02/06 02:42:05;;;;;;;2.13;0.90;;;20.50;43.10;;;;;;5113337;28;20402;-55
2024/02/06 02:44:30;;;;;;;2.38;0.90;;;20.50;43.10;;;;;;5113363;28;20110;-54
2024/02/06 02:46:56;;;;;;;2.05;1.08;;;20.50;43.20;;;;;;5094589;28;20051;-55
2024/02/06 02:49:22;;;;;;;2.13;0.98;;;20.50;43.20;;;;;;5095408;28;20324;-53
2024/02/06 02:51:50;;;;;;;2.75;1.05;;;20.50;43.20;;;;;;5113341;28;20035;-53
2024/02/06 02:54:16;;;;;;;1.52;0.80;;;20.50;43.20;;;;;;5113393;28;20024;-52
2024/02/06 02:56:42;;;;;;;1.30;0.77;;;20.50;43.10;;;;;;5094765;28;20044;-54
2024/02/06 02:59:08;;;;;;;1.80;1.08;;;20.50;43.20;;;;;;5113045;28;20127;-52
2024/02/06 03:01:34;;;;;;;1.88;0.93;;;20.50;43.10;;;;;;5113365;28;20450;-51
2024/02/06 03:04:00;;;;;;;1.80;0.93;;;20.40;43.10;;;;;;5095261;28;20027;-53
2024/02/06 03:06:25;;;;;;;1.17;0.80;;;20.40;43.10;;;;;;5113690;28;20488;-53
2024/02/06 03:08:51;;;;;;;1.60;0.95;;;20.40;43.10;;;;;;5112804;28;20028;-53
2024/02/06 03:11:17;;;;;;;3.00;0.80;;;20.40;43.10;;;;;;5113103;28;20111;-52
2024/02/06 03:13:43;;;;;;;2.60;1.00;;;20.40;43.20;;;;;;5113228;28;20454;-51
2024/02/06 03:16:09;;;;;;;2.60;0.85;;;20.40;43.20;;;;;;5094508;28;20067;-54
2024/02/06 03:18:35;;;;;;;1.67;0.88;;;20.50;43.20;;;;;;5112714;28;20046;-57
2024/02/06 03:21:01;;;;;;;3.05;0.90;;;20.40;43.20;;;;;;5094803;28;20389;-51
2024/02/06 03:23:27;;;;;;;2.42;0.93;;;20.40;43.20;;;;;;5111060;28;20034;-53
2024/02/06 03:25:53;;;;;;;3.58;1.30;;;20.40;43.20;;;;;;5112456;28;20034;-55
2024/02/06 03:28:19;;;;;;;2.00;1.00;;;20.40;43.20;;;;;;5112427;28;22085;-54
2024/02/06 03:30:45;;;;;;;2.58;0.88;;;20.40;43.20;;;;;;5113538;28;20023;-52
2024/02/06 03:33:11;;;;;;;1.70;0.68;;;20.40;43.30;;;;;;5112647;28;20489;-52
2024/02/06 03:35:38;;;;;;;3.13;1.02;;;20.40;43.30;;;;;;5112837;28;20111;-54
2024/02/06 03:38:04;;;;;;;2.67;1.00;;;20.40;43.30;;;;;;5111860;28;20052;-53
2024/02/06 03:40:32;;;;;;;3.25;0.90;;;20.40;43.30;;;;;;5112929;28;20042;-49
2024/02/06 03:42:58;;;;;;;4.22;1.35;;;20.40;43.30;;;;;;5112045;28;20023;-50
2024/02/06 03:45:24;;;;;;;2.53;0.88;;;20.40;43.30;;;;;;5094865;28;20059;-54
2024/02/06 03:47:50;;;;;;;2.53;1.00;;;20.40;43.30;;;;;;5113311;28;20158;-50
2024/02/06 03:50:15;;;;;;;2.47;1.10;;;20.40;43.30;;;;;;5112253;28;20115;-54
2024/02/06 03:52:41;;;;;;;3.42;1.20;;;20.40;43.30;;;;;;5112661;28;20049;-53
2024/02/06 03:55:07;;;;;;;2.97;1.17;;;20.40;43.40;;;;;;5112369;28;20043;-54
2024/02/06 03:57:34;;;;;;;2.70;1.05;;;20.30;43.30;;;;;;5113196;28;20110;-51
2024/02/06 04:00:00;;;;;;;2.88;1.00;;;20.30;43.40;;;;;;5077776;28;20432;-53
2024/02/06 04:02:25;;;;;;;2.05;0.75;;;20.30;43.40;;;;;;5110512;28;20035;-54
2024/02/06 04:04:51;;;;;;;3.95;1.20;;;20.40;43.50;;;;;;5111996;28;20019;-56
2024/02/06 04:07:17;;;;;;;2.17;1.02;;;20.30;43.40;;;;;;5112216;28;20382;-51
2024/02/06 04:09:43;;;;;;;3.92;1.02;;;20.30;44.10;;;;;;5111637;28;20034;-52
2024/02/06 04:12:09;;;;;;;2.38;1.08;;;20.30;43.50;;;;;;5112779;28;20017;-54
2024/02/06 04:14:38;;;;;;;4.10;1.13;;;20.30;43.50;;;;;;5077158;28;20438;-51
2024/02/06 04:17:04;;;;;;;2.55;0.82;;;20.30;43.60;;;;;;5112767;28;20473;-58
2024/02/06 04:19:30;;;;;;;2.28;1.00;;;20.30;43.60;;;;;;5112141;28;20031;-54
2024/02/06 04:21:56;;;;;;;2.92;1.15;;;20.30;43.60;;;;;;5112276;28;20024;-50
2024/02/06 04:24:22;;;;;;;2.08;0.85;;;20.30;43.60;;;;;;5112091;28;20024;-54
2024/02/06 04:26:47;;;;;;;2.20;0.95;;;20.30;43.60;;;;;;5112558;28;20126;-53
2024/02/06 04:29:14;;;;;;;2.55;0.88;;;20.30;43.60;;;;;;5112091;28;20031;-53
2024/02/06 04:31:40;;;;;;;2.63;1.00;;;20.30;43.70;;;;;;5077633;28;20084;-52
2024/02/06 04:34:07;;;;;;;2.20;1.13;;;20.30;43.70;;;;;;5112026;28;20055;-51
2024/02/06 04:36:32;;;;;;;1.35;0.75;;;20.30;43.70;;;;;;5112368;28;20028;-53
2024/02/06 04:38:58;;;;;;;1.67;0.88;;;20.30;43.70;;;;;;5111787;28;20093;-51
2024/02/06 04:41:24;;;;;;;3.03;1.20;;;20.30;43.70;;;;;;5110918;28;20020;-52
2024/02/06 04:43:50;;;;;;;1.95;0.80;;;20.30;43.70;;;;;;5112421;28;20027;-56
2024/02/06 04:46:16;;;;;;;2.58;1.23;;;20.30;43.70;;;;;;5093018;28;20131;-50
2024/02/06 04:48:41;;;;;;;1.27;0.95;;;20.30;43.80;;;;;;5112191;28;20046;-50
2024/02/06 04:51:07;;;;;;;2.92;1.08;;;20.30;43.80;;;;;;5113313;28;20036;-53
2024/02/06 04:53:33;;;;;;;2.08;0.80;;;20.20;43.70;;;;;;5096258;28;20032;-53
2024/02/06 04:55:59;;;;;;;3.20;1.30;;;20.30;43.80;;;;;;5115841;28;20107;-54
2024/02/06 04:58:25;;;;;;;2.22;0.98;;;20.20;43.80;;;;;;5115083;28;20454;-53
2024/02/06 05:00:51;;;;;;;2.05;0.90;;;20.30;43.80;;;;;;5115501;28;20027;-55
2024/02/06 05:03:17;;;;;;;2.65;1.10;;;20.30;43.90;;;;;;5115570;28;20103;-55
2024/02/06 05:05:43;;;;;;;1.63;0.80;;;20.20;43.90;;;;;;5115384;28;20385;-51
2024/02/06 05:08:09;;;;;;;2.45;0.93;;;20.20;43.90;;;;;;5114730;28;20047;-54
2024/02/06 05:10:35;;;;;;;2.67;1.17;;;20.20;43.90;;;;;;5114727;28;20788;-56
2024/02/06 05:13:02;;;;;;;2.00;0.82;;;20.20;43.90;;;;;;5115088;28;20465;-52
2024/02/06 05:15:27;;;;;;;3.00;1.00;;;20.20;44.00;;;;;;5098173;28;20028;-51
2024/02/06 05:17:53;;;;;;;4.15;1.00;;;20.20;44.00;;;;;;5109018;28;20035;-52
2024/02/06 05:20:19;;;;;;;2.05;1.10;;;20.20;44.00;;;;;;5114580;28;20019;-49
2024/02/06 05:22:45;;;;;;;2.17;0.90;;;20.20;44.00;;;;;;5096680;28;20027;-51
2024/02/06 05:25:11;;;;;;;4.43;1.27;;;20.20;44.00;;;;;;5115386;28;20391;-52
2024/02/06 05:27:37;;;;;;;4.60;1.65;;;20.20;44.10;;;;;;5114506;28;20020;-50
2024/02/06 05:30:05;;;;;;;2.00;0.75;;;20.20;44.10;;;;;;5115361;28;20354;-54
2024/02/06 05:32:38;;;;;;;2.70;0.98;;;20.20;44.10;;;;;;5114780;28;20106;-51
2024/02/06 05:35:04;;;;;;;1.83;0.75;;;20.20;44.10;;;;;;5114113;28;20023;-49
2024/02/06 05:37:31;;;;;;;2.63;1.02;;;20.20;44.10;;;;;;5114273;28;20027;-57
2024/02/06 05:39:57;;;;;;;2.30;0.93;;;20.20;44.20;;;;;;5114240;28;20339;-51
2024/02/06 05:42:23;;;;;;;2.55;0.88;;;20.20;44.20;;;;;;5114740;28;20110;-51
2024/02/06 05:44:49;;;;;;;2.22;1.00;;;20.20;44.20;;;;;;5111935;28;20190;-52
2024/02/06 05:47:16;;;;;;;3.50;1.13;;;20.20;44.20;;;;;;5093484;28;20438;-51
2024/02/06 05:49:42;;;;;;;3.50;1.20;;;20.10;44.20;;;;;;5093670;28;20450;-49
2024/02/06 05:52:08;;;;;;;2.25;1.10;;;20.10;44.20;;;;;;5094166;28;20020;-49
2024/02/06 05:54:35;;;;;;;4.75;1.20;;;20.10;44.20;;;;;;5076911;28;20032;-52
2024/02/06 05:57:01;;;;;;;3.53;1.00;;;20.10;44.20;;;;;;5093507;28;20020;-49
2024/02/06 05:59:28;;;;;;;2.50;1.10;;;20.10;44.30;;;;;;5076510;28;20450;-49
2024/02/06 06:01:54;;;;;;;2.45;0.90;;;20.10;44.30;;;;;;5093835;28;20052;-51
2024/02/06 06:04:21;;;;;;;2.17;1.13;;;20.10;44.30;;;;;;5093370;28;20047;-51
2024/02/06 06:06:47;;;;;;;2.95;1.00;;;20.10;44.30;;;;;;5093490;28;20023;-53
2024/02/06 06:09:13;;;;;;;2.50;1.00;;;20.10;44.30;;;;;;5075765;28;20036;-53
2024/02/06 06:11:39;;;;;;;3.00;1.25;;;20.10;44.40;;;;;;5093299;28;20431;-53
2024/02/06 06:14:05;;;;;;;2.38;1.00;;;20.10;44.40;;;;;;5093920;28;20057;-50
2024/02/06 06:16:30;;;;;;;4.47;0.93;;;20.10;44.50;;;;;;5075538;28;20459;-54
2024/02/06 06:18:56;;;;;;;1.83;0.77;;;20.10;44.40;;;;;;5093250;28;20032;-50
2024/02/06 06:21:22;;;;;;;2.83;1.17;;;20.10;44.50;;;;;;5075897;28;20085;-53
2024/02/06 06:23:48;;;;;;;2.45;1.10;;;20.10;44.50;;;;;;5093440;28;20389;-53
2024/02/06 06:26:14;;;;;;;2.67;0.90;;;20.10;44.50;;;;;;5092282;28;20032;-51
2024/02/06 06:28:39;;;;;;;2.17;1.00;;;20.10;44.50;;;;;;5093577;28;20039;-51
2024/02/06 06:31:07;;;;;;;2.35;0.98;;;20.10;44.50;;;;;;5094199;28;20157;-48
2024/02/06 06:33:33;;;;;;;2.70;1.02;;;20.10;44.60;;;;;;5093425;28;20028;-53
2024/02/06 06:35:58;;;;;;;3.33;1.17;;;20.10;44.60;;;;;;5093237;28;20024;-53
2024/02/06 06:38:24;;;;;;;2.88;1.30;;;20.10;44.60;;;;;;5092237;28;20062;-50
2024/02/06 06:40:50;;;;;;;1.95;0.65;;;20.10;44.70;;;;;;5092409;28;20020;-51
2024/02/06 06:43:16;;;;;;;2.55;0.90;;;20.10;44.70;;;;;;5075984;28;20494;-49
2024/02/06 06:45:42;;;;;;;1.88;1.17;;;20.10;44.70;;;;;;5092203;28;20047;-47
2024/02/06 06:48:08;;;;;;;1.80;0.75;;;20.10;44.70;;;;;;5092365;28;20032;-52
2024/02/06 06:50:34;;;;;;;2.50;1.00;;;20.10;44.70;;;;;;5092807;28;20032;-58
2024/02/06 06:53:00;;;;;;;2.58;0.93;;;20.00;44.70;;;;;;5092975;28;20020;-56
2024/02/06 06:55:26;;;;;;;4.13;0.93;;;20.00;44.80;;;;;;5092833;28;20055;-56
2024/02/06 06:57:52;;;;;;;3.95;1.35;;;20.00;44.80;;;;;;5092704;28;20116;-56
2024/02/06 07:00:18;;;;;;;3.10;0.98;;;20.00;44.80;;;;;;5074042;28;20028;-52
2024/02/06 07:02:44;;;;;;;2.38;1.20;;;20.00;44.80;;;;;;5074041;28;20032;-49
2024/02/06 07:05:12;;;;;;;3.28;1.30;;;20.00;44.90;;;;;;5092655;28;20024;-52
2024/02/06 07:07:39;;;;;;;4.18;1.00;;;20.00;44.90;;;;;;5091597;28;20020;-55
2024/02/06 07:10:06;;;;;;;2.60;1.10;;;20.00;44.90;;;;;;5071368;28;20115;-56
2024/02/06 07:12:33;;;;;;;3.35;0.88;;;20.00;44.90;;;;;;5091548;28;20032;-56
2024/02/06 07:14:59;;;;;;;2.47;1.20;;;20.00;44.90;;;;;;5074203;28;20097;-53
2024/02/06 07:17:25;;;;;;;2.42;0.90;;;20.00;45.00;;;;;;5092688;28;20024;-56
2024/02/06 07:19:51;;;;;;;4.57;0.90;;;20.00;45.00;;;;;;5092631;28;20046;-53
2024/02/06 07:22:17;;;;;;;3.47;1.23;;;20.00;45.10;;;;;;5093112;28;20141;-52
2024/02/06 07:24:43;;;;;;;5.18;1.23;;;20.00;45.10;;;;;;5075134;28;20032;-54
2024/02/06 07:27:10;;;;;;;3.33;1.20;;;20.00;45.10;;;;;;5075371;28;20153;-59
2024/02/06 07:29:37;;;;;;;3.25;1.30;;;20.00;45.10;;;;;;5092324;28;20057;-54
2024/02/06 07:32:03;;;;;;;4.18;1.00;;;20.00;45.10;;;;;;5092824;28;20038;-56
2024/02/06 07:34:29;;;;;;;2.65;1.10;;;20.00;45.10;;;;;;5091582;28;20035;-56
2024/02/06 07:36:55;;;;;;;2.47;1.08;;;19.90;45.10;;;;;;5092816;28;20020;-57
2024/02/06 07:39:21;;;;;;;3.58;1.38;;;20.00;45.20;;;;;;5074451;28;20040;-56
2024/02/06 07:41:47;;;;;;;2.70;1.00;;;20.00;45.20;;;;;;5073240;28;20439;-53
2024/02/06 07:44:13;;;;;;;3.40;1.15;;;20.00;45.20;;;;;;5075191;28;20024;-53
2024/02/06 07:46:38;;;;;;;4.10;1.23;;;20.00;45.20;;;;;;5074689;28;20562;-50
2024/02/06 07:49:04;;;;;;;4.03;1.52;;;20.00;45.30;;;;;;5092928;28;20467;-52
2024/02/06 07:51:30;;;;;;;2.80;1.02;;;20.00;45.30;;;;;;5092860;28;20106;-54
2024/02/06 07:53:58;;;;;;;3.03;1.30;;;20.00;45.30;;;;;;5091957;28;20120;-56
2024/02/06 07:56:23;;;;;;;2.75;1.10;;;20.00;45.30;;;;;;5090816;28;20047;-55
2024/02/06 07:58:49;;;;;;;3.17;1.25;;;19.90;45.40;;;;;;5092241;28;20067;-52
2024/02/06 08:01:15;;;;;;;3.30;1.25;;;20.00;45.50;;;;;;5091688;28;20036;-50
2024/02/06 08:03:41;;;;;;;4.95;1.60;;;20.00;45.50;;;;;;5093264;28;20032;-53
2024/02/06 08:06:07;;;;;;;2.78;1.08;;;20.00;45.60;;;;;;5091330;28;20358;-56
2024/02/06 08:08:33;;;;;;;3.25;1.45;;;19.90;45.50;;;;;;5091624;28;20056;-50
2024/02/06 08:10:59;;;;;;;3.83;1.27;;;20.00;45.60;;;;;;5090868;28;20067;-57
2024/02/06 08:13:26;;;;;;;4.05;1.55;;;20.00;45.60;;;;;;5074074;28;20070;-56
2024/02/06 08:15:52;;;;;;;3.47;1.33;;;20.10;45.60;;;;;;5091826;28;20042;-56
2024/02/06 08:18:18;;;;;;;3.88;1.33;;;20.10;45.60;;;;;;5091545;28;20431;-53
2024/02/06 08:20:44;;;;;;;3.75;1.52;;;20.10;45.60;;;;;;5091967;28;20024;-54
2024/02/06 08:23:11;;;;;;;4.97;1.20;;;20.10;45.50;;;;;;5090521;28;20103;-56
2024/02/06 08:25:36;;;;;;;4.15;1.30;;;20.20;45.60;;;;;;5072138;28;20035;-53
2024/02/06 08:28:02;;;;;;;2.47;1.25;;;20.20;45.50;;;;;;5095196;28;20024;-54
2024/02/06 08:30:28;;;;;;;2.58;0.90;;;20.30;45.50;;;;;;5094451;28;20036;-54
2024/02/06 08:32:54;;;;;;;5.60;1.42;;;20.30;45.40;;;;;;5094666;28;20027;-58
2024/02/06 08:35:20;;;;;;;5.00;1.60;;;20.30;45.40;;;;;;5094521;28;20020;-55
2024/02/06 08:37:46;;;;;;;2.83;1.30;;;20.40;45.30;;;;;;5095123;28;20103;-53
2024/02/06 08:40:13;;;;;;;4.30;1.23;;;20.40;45.20;;;;;;5073805;28;20126;-56
2024/02/06 08:42:39;;;;;;;3.28;1.10;;;20.50;45.20;;;;;;5077351;28;20027;-53
2024/02/06 08:45:05;;;;;;;3.78;1.27;;;20.50;45.10;;;;;;5093093;28;20035;-56
2024/02/06 08:47:32;;;;;;;3.28;1.27;;;20.60;45.10;;;;;;5097670;28;20325;-50
2024/02/06 08:49:58;;;;;;;5.57;1.45;;;20.60;45.00;;;;;;5076554;28;20020;-56
2024/02/06 08:52:24;;;;;;;2.83;1.10;;;20.60;45.00;;;;;;5094949;28;20088;-54
2024/02/06 08:54:50;;;;;;;2.80;1.05;;;20.70;45.00;;;;;;5078734;28;20047;-54
2024/02/06 08:57:15;;;;;;;3.83;1.40;;;20.70;45.00;;;;;;5097317;28;20182;-54
2024/02/06 08:59:41;;;;;;;4.80;1.52;;;20.80;45.00;;;;;;5095909;28;20486;-56
2024/02/06 09:02:08;;;;;;;3.45;1.50;;;20.80;44.90;;;;;;5097356;28;20452;-55
2024/02/06 09:04:34;;;;;;;3.15;1.20;;;20.80;44.90;;;;;;5095844;28;20036;-52
2024/02/06 09:07:00;;;;;;;6.63;1.25;;;20.80;44.80;;;;;;5079281;28;20039;-56
2024/02/06 09:09:26;;;;;;;4.25;1.23;;;20.90;44.70;;;;;;5079097;28;20028;-54
2024/02/06 09:11:52;;;;;;;2.58;1.15;;;20.90;44.70;;;;;;5097234;28;20021;-53
2024/02/06 09:14:18;;;;;;;4.07;1.40;;;20.90;44.60;;;;;;5095463;28;20411;-56
2024/02/06 09:16:44;;;;;;;3.90;1.90;;;21.00;44.60;;;;;;5094656;28;20439;-56
2024/02/06 09:19:10;;;;;;;3.42;1.30;;;21.00;44.60;;;;;;5095374;28;20028;-54
2024/02/06 09:21:36;;;;;;;5.53;1.73;;;21.00;44.50;;;;;;5077040;28;20031;-54
2024/02/06 09:24:02;;;;;;;4.47;1.13;;;21.00;44.50;;;;;;5095701;28;20020;-57
2024/02/06 09:26:28;;;;;;;2.88;1.10;;;21.10;44.50;;;;;;5077022;28;20044;-55
2024/02/06 09:28:54;;;;;;;3.05;1.38;;;21.10;44.40;;;;;;5094701;28;20035;-55
2024/02/06 09:31:20;;;;;;;4.55;1.33;;;21.10;44.50;;;;;;5095134;28;20492;-54
2024/02/06 09:33:46;;;;;;;2.95;1.20;;;21.10;44.30;;;;;;5092694;28;20347;-55
2024/02/06 09:36:12;;;;;;;2.42;1.20;;;21.10;44.30;;;;;;5093575;28;20043;-54
2024/02/06 09:38:39;;;;;;;2.75;1.30;;;21.10;44.30;;;;;;5077039;28;20444;-54
2024/02/06 09:41:06;;;;;;;3.00;1.02;;;21.20;44.30;;;;;;5076795;28;20088;-55
2024/02/06 09:43:32;;;;;;;3.00;1.45;;;21.20;44.30;;;;;;5094965;28;20348;-52
2024/02/06 09:46:00;;;;;;;3.42;1.20;;;21.20;44.30;;;;;;5094102;28;20442;-54
2024/02/06 09:48:26;;;;;;;4.28;1.50;;;21.20;44.20;;;;;;5093715;28;20024;-54
2024/02/06 09:50:55;;;;;;;3.47;1.45;;;21.20;44.20;;;;;;5093847;28;20145;-54
2024/02/06 09:53:32;;;;;;;3.10;1.20;;;21.30;44.20;;;;;;5077342;28;20028;-57
2024/02/06 09:55:59;;;;;;;3.35;1.30;;;21.30;44.10;;;;;;5093345;28;20032;-54
2024/02/06 09:58:26;;;;;;;2.70;1.27;;;21.30;44.10;;;;;;5094424;28;20039;-51
2024/02/06 10:00:54;;;;;;;4.82;1.40;;;21.30;44.00;;;;;;5094156;28;20032;-56
2024/02/06 10:03:29;;;;;;;2.78;1.30;;;21.40;44.00;;;;;;5076492;28;20222;-53
2024/02/06 10:05:59;;;;;;;4.40;1.77;;;21.40;43.90;;;;;;5094788;28;20031;-54
2024/02/06 10:08:25;;;;;;;3.15;1.25;;;21.50;43.90;;;;;;5094437;28;20104;-55
2024/02/06 10:10:53;;;;;;;2.05;0.95;;;21.50;43.80;;;;;;5094087;28;20157;-58
2024/02/06 10:13:21;;;;;;;2.95;1.15;;;21.50;43.80;;;;;;5091957;28;20077;-57
2024/02/06 10:15:47;;;;;;;4.57;1.13;;;21.50;43.80;;;;;;5094660;28;20028;-55
2024/02/06 10:18:13;;;;;;;3.25;1.23;;;21.60;43.70;;;;;;5094065;28;20028;-53
2024/02/06 10:20:47;;;;;;;2.97;1.17;;;21.60;43.70;;;;;;5076257;28;20039;-56
2024/02/06 10:23:15;;;;;;;2.33;0.90;;;21.60;43.60;;;;;;5093080;28;20115;-57
2024/02/06 10:25:42;;;;;;;1.85;0.95;;;21.60;43.60;;;;;;5093191;28;20042;-57
2024/02/06 10:28:08;;;;;;;2.50;1.05;;;21.70;43.60;;;;;;5076428;28;20027;-57
2024/02/06 10:30:37;;;;;;;3.13;1.00;;;21.70;43.50;;;;;;5094487;28;20031;-56
2024/02/06 10:33:13;;;;;;;2.47;1.08;;;21.70;43.50;;;;;;5093978;28;20032;-57
2024/02/06 10:35:39;;;;;;;2.83;1.10;;;21.70;43.50;;;;;;5093141;28;20039;-58
2024/02/06 10:38:11;;;;;;;2.38;0.82;;;21.70;43.40;;;;;;5093970;28;20028;-58
2024/02/06 10:40:38;;;;;;;1.98;0.70;;;21.70;43.40;;;;;;5090860;28;20469;-55
2024/02/06 10:43:05;;;;;;;1.77;0.80;;;21.70;43.40;;;;;;5093111;28;20024;-55
2024/02/06 10:45:31;;;;;;;2.38;0.88;;;21.80;43.50;;;;;;5092030;28;20047;-55
2024/02/06 10:47:58;;;;;;;2.33;1.25;;;21.80;43.50;;;;;;5092201;28;20035;-56
2024/02/06 10:50:26;;;;;;;2.20;0.77;;;21.80;43.60;;;;;;5091772;28;20031;-54
2024/02/06 10:52:53;;;;;;;2.90;0.80;;;21.80;43.60;;;;;;5094234;28;20454;-54
2024/02/06 10:55:20;;;;;;;2.60;0.80;;;21.80;43.70;;;;;;5093976;28;20052;-57
2024/02/06 10:57:47;;;;;;;2.78;1.00;;;21.80;43.60;;;;;;5076109;28;20470;-55
2024/02/06 11:00:19;;;;;;;4.18;1.17;;;21.80;43.60;;;;;;5076139;28;20052;-55
2024/02/06 11:02:51;;;;;;;2.65;1.10;;;21.80;43.60;;;;;;5093027;28;20050;-56
2024/02/06 11:05:35;;;;;;;3.47;1.00;;;21.80;43.60;;;;;;5093991;28;20023;-53
2024/02/06 11:08:06;;;;;;;3.08;1.02;;;21.80;43.60;;;;;;5091710;28;20028;-57
2024/02/06 11:10:46;;;;;;;4.72;0.90;;;21.80;43.60;;;;;;5076172;28;20036;-51
2024/02/06 11:13:19;;;;;;;2.90;1.10;;;21.80;43.60;;;;;;5071494;28;20031;-54
2024/02/06 11:19:45;;;;;;;2.05;0.90;;;21.80;43.50;;;;;;5031548;28;20056;-58
2024/02/06 11:22:24;;;;;;;2.63;1.10;;;21.80;43.60;;;;;;5034704;28;20098;-61
2024/02/06 11:24:53;;;;;;;4.55;1.83;;;21.80;43.70;;;;;;5026775;28;20520;-56
2024/02/06 11:27:19;;;;;;;2.70;1.17;;;21.70;43.80;;;;;;5032338;28;20770;-56
2024/02/06 11:29:47;;;;;;;3.20;1.13;;;21.70;43.90;;;;;;5028008;28;20018;-56
2024/02/06 11:32:14;;;;;;;2.63;1.35;;;21.80;44.00;;;;;;5032378;28;20060;-53
2024/02/06 11:34:54;;;;;;;4.85;1.02;;;21.90;43.90;;;;;;5030269;28;20054;-53
2024/02/06 11:37:30;;;;;;;3.17;1.27;;;22.00;43.80;;;;;;5019469;28;20053;-59
2024/02/06 11:40:11;;;;;;;2.83;0.98;;;22.10;43.80;;;;;;5032451;28;20048;-56
2024/02/06 11:42:39;;;;;;;3.78;1.10;;;22.20;43.70;;;;;;5033661;28;20120;-56
2024/02/06 11:45:09;;;;;;;2.47;1.10;;;22.30;43.70;;;;;;5032071;28;20025;-55
2024/02/06 11:47:36;;;;;;;4.55;1.27;;;22.40;43.70;;;;;;5024991;28;20419;-57
2024/02/06 11:50:12;;;;;;;3.25;1.10;;;22.50;43.70;;;;;;5028084;28;20029;-59
2024/02/06 11:52:40;;;;;;;3.47;1.23;;;22.50;43.60;;;;;;5019037;28;20022;-54
2024/02/06 11:55:08;;;;;;;2.33;1.20;;;22.60;43.50;;;;;;5027467;28;20018;-55
2024/02/06 11:57:35;;;;;;;4.60;1.20;;;22.60;43.30;;;;;;5032668;28;20029;-56
2024/02/06 12:00:02;;;;;;;3.30;1.40;;;22.70;43.30;;;;;;5012903;28;20071;-56
2024/02/06 12:02:30;;;;;;;3.95;0.95;;;22.70;43.20;;;;;;5032234;28;20489;-58
2024/02/06 12:05:04;;;;;;;3.13;1.15;;;22.80;43.10;;;;;;5038058;28;20469;-54
2024/02/06 12:07:30;;;;;;;2.10;1.00;;;22.80;43.00;;;;;;5037816;28;20116;-55
2024/02/06 12:09:56;;;;;;;6.32;1.48;;;22.90;43.00;;;;;;5026511;28;20270;-55
2024/02/06 12:12:22;;;;;;;3.05;0.85;;;22.90;42.90;;;;;;5029896;28;20029;-57
2024/02/06 12:14:49;;;;;;;1.52;1.00;;;23.00;42.90;;;;;;5034869;28;20021;-54
2024/02/06 12:17:15;;;;;;;4.30;1.17;;;23.00;42.80;;;;;;5038246;28;20048;-55
2024/02/06 12:19:43;;;;;;;3.13;0.85;;;23.00;42.60;;;;;;5055096;28;20581;-54
2024/02/06 12:22:14;;;;;;;2.88;1.10;;;23.10;42.60;;;;;;5050995;28;20036;-58
2024/02/06 12:24:39;;;;;;;2.95;1.20;;;23.10;42.50;;;;;;5048142;28;20469;-54
2024/02/06 12:27:07;;;;;;;3.72;1.10;;;23.20;42.50;;;;;;5052656;28;20112;-54
2024/02/06 12:29:51;;;;;;;2.42;0.93;;;23.20;42.50;;;;;;5050638;28;20378;-55
2024/02/06 12:32:17;;;;;;;4.10;1.10;;;23.20;42.40;;;;;;5048776;28;20044;-56
2024/02/06 12:34:44;;;;;;;1.90;0.80;;;23.20;42.30;;;;;;5047639;28;20033;-57
2024/02/06 12:37:12;;;;;;;3.17;0.73;;;23.20;42.30;;;;;;5049063;28;20032;-56
2024/02/06 12:39:38;;;;;;;2.55;0.90;;;23.30;42.30;;;;;;5056830;28;20048;-56
2024/02/06 12:42:06;;;;;;;3.20;1.00;;;23.30;42.30;;;;;;5055288;28;20024;-54
2024/02/06 12:44:33;;;;;;;2.15;0.80;;;23.30;42.30;;;;;;5053955;28;20040;-60
2024/02/06 12:47:00;;;;;;;2.35;1.10;;;23.30;42.30;;;;;;5057888;28;20039;-57
2024/02/06 12:49:27;;;;;;;2.28;1.10;;;23.30;42.30;;;;;;5052794;28;20083;-58